Time;durP1;ratioP1;P1;durP2;ratioP2;P2;SDS_P1;SDS_P2;PMS_P1;PMS_P2;Temp;Humidity;BMP_temperature;BMP_pressure;BME280_temperature;BME280_humidity;BME280_pressure;Samples;Min_cycle;Max_cycle;Signal;HPM_P1;HPM_P2
2022/09/05 00:00:14;;;;;;;4.57;1.60;;;;;;;19.70;67.69;100577.31;5074262;28;20060;-80
2022/09/05 00:03:01;;;;;;;4.82;1.98;;;;;;;19.75;67.47;100574.19;5072801;28;20105;-80
2022/09/05 00:05:32;;;;;;;3.33;1.40;;;;;;;19.71;67.52;100581.66;5072964;28;20059;-80
2022/09/05 00:08:17;;;;;;;4.10;1.58;;;;;;;19.65;67.83;100578.47;5072687;28;20032;-81
2022/09/05 00:11:28;;;;;;;3.90;1.73;;;;;;;19.61;67.80;100576.84;5073319;28;20040;-80
2022/09/05 00:14:18;;;;;;;2.75;1.35;;;;;;;19.61;67.90;100579.63;5072685;28;20040;-81
2022/09/05 00:17:09;;;;;;;3.53;1.60;;;;;;;19.47;68.51;100580.28;5073670;28;20048;-80
2022/09/05 00:19:55;;;;;;;3.63;1.80;;;;;;;19.48;68.47;100576.34;5073886;28;20300;-80
2022/09/05 00:22:44;;;;;;;4.00;1.70;;;;;;;19.50;68.49;100574.00;5073672;28;20021;-82
2022/09/05 00:25:15;;;;;;;3.38;1.50;;;;;;;19.46;68.59;100579.47;5073850;28;20028;-81
2022/09/05 00:27:52;;;;;;;5.78;1.73;;;;;;;19.44;68.59;100575.53;5073739;28;20079;-81
2022/09/05 00:30:20;;;;;;;4.32;1.58;;;;;;;19.35;69.16;100573.09;5073765;28;20111;-81
2022/09/05 00:33:07;;;;;;;4.13;1.40;;;;;;;19.29;69.42;100569.09;5073660;28;20032;-81
2022/09/05 00:35:38;;;;;;;;;;;;;;;19.39;68.56;100573.91;5074232;28;20103;-81
2022/09/05 00:38:19;;;;;;;3.17;1.60;;;;;;;19.35;68.89;100573.09;5073258;28;19957;-81
2022/09/05 00:40:47;;;;;;;4.15;1.92;;;;;;;19.29;68.91;100569.09;5073521;28;20484;-81
2022/09/05 00:43:23;;;;;;;3.28;1.30;;;;;;;19.43;68.35;100566.44;5073254;28;20433;-80
2022/09/05 00:45:57;;;;;;;3.58;1.80;;;;;;;19.56;67.79;100568.94;5072192;28;20383;-81
2022/09/05 00:48:28;;;;;;;3.78;1.50;;;;;;;19.62;67.38;100568.19;5073336;28;20045;-81
2022/09/05 00:51:07;;;;;;;2.85;1.40;;;;;;;19.73;66.94;100566.28;5073098;28;20028;-80
2022/09/05 00:54:10;;;;;;;2.92;1.33;;;;;;;19.77;66.66;100566.28;5072995;28;20043;-81
2022/09/05 00:56:49;;;;;;;3.67;1.63;;;;;;;19.66;67.75;100559.94;5073279;28;20112;-81
2022/09/05 00:59:23;;;;;;;3.28;1.50;;;;;;;19.60;67.75;100555.94;5072937;28;20029;-80
2022/09/05 01:02:05;;;;;;;2.70;1.40;;;;;;;19.44;68.56;100565.25;5073578;28;20036;-81
2022/09/05 01:04:52;;;;;;;4.07;1.25;;;;;;;19.36;69.12;100565.63;5072837;28;20045;-81
2022/09/05 01:07:46;;;;;;;3.45;1.60;;;;;;;19.29;69.70;100568.31;5072763;28;20064;-81
2022/09/05 01:11:09;;;;;;;3.83;1.60;;;;;;;19.14;69.88;100561.88;5073039;28;20056;-80
2022/09/05 01:13:50;;;;;;;3.58;1.60;;;;;;;18.92;70.51;100560.91;5052516;28;20045;-81
2022/09/05 01:16:28;;;;;;;3.45;1.70;;;;;;;18.92;70.47;100561.69;5035330;28;20029;-81
2022/09/05 01:19:17;;;;;;;3.00;1.55;;;;;;;18.94;70.57;100564.84;5067938;28;20044;-81
2022/09/05 01:21:53;;;;;;;3.55;1.67;;;;;;;18.91;70.71;100560.09;5072164;28;20028;-81
2022/09/05 01:24:51;;;;;;;3.17;1.58;;;;;;;18.90;70.87;100571.53;5072645;28;20025;-80
2022/09/05 01:27:54;;;;;;;3.10;1.48;;;;;;;18.82;71.02;100567.13;5072725;28;20037;-80
2022/09/05 01:30:47;;;;;;;3.47;1.50;;;;;;;18.94;70.28;100567.63;5073109;28;20039;-80
2022/09/05 01:33:24;;;;;;;3.53;1.60;;;;;;;19.08;69.52;100569.72;5072508;28;20537;-80
2022/09/05 01:36:04;;;;;;;4.15;1.73;;;;;;;18.99;70.39;100572.03;5071376;28;20475;-80
2022/09/05 01:38:54;;;;;;;3.30;1.40;;;;;;;18.97;70.56;100568.03;5071428;28;20028;-81
2022/09/05 01:41:31;;;;;;;2.70;1.38;;;;;;;18.86;70.51;100568.75;5072246;28;20024;-81
2022/09/05 01:44:03;;;;;;;3.30;1.50;;;;;;;18.82;70.84;100573.44;5072635;28;20124;-81
2022/09/05 01:46:38;;;;;;;3.95;1.80;;;;;;;18.86;70.57;100574.25;5072655;28;20387;-80
2022/09/05 01:49:23;;;;;;;4.70;1.77;;;;;;;18.93;70.25;100573.53;5071272;28;20054;-80
2022/09/05 01:52:07;;;;;;;3.10;1.38;;;;;;;18.93;70.24;100571.56;5072671;28;20070;-80
2022/09/05 01:54:46;;;;;;;3.28;1.48;;;;;;;19.04;69.68;100559.84;5072400;28;20062;-80
2022/09/05 01:57:33;;;;;;;3.72;1.52;;;;;;;19.06;69.44;100560.25;5072525;28;20074;-80
2022/09/05 02:00:23;;;;;;;3.20;1.30;;;;;;;19.17;68.83;100559.16;5072224;28;20082;-80
2022/09/05 02:02:51;;;;;;;4.60;1.70;;;;;;;19.20;69.07;100560.38;5071075;28;20382;-80
2022/09/05 02:05:31;;;;;;;3.60;1.60;;;;;;;19.15;69.32;100557.97;5072619;28;20055;-81
2022/09/05 02:08:16;;;;;;;3.35;1.50;;;;;;;19.06;69.20;100558.28;5072123;28;20557;-80
2022/09/05 02:11:00;;;;;;;2.90;1.45;;;;;;;18.96;70.05;100558.16;5072422;28;20447;-80
2022/09/05 02:13:34;;;;;;;3.17;1.65;;;;;;;18.89;70.24;100565.22;5072364;28;20024;-80
2022/09/05 02:16:09;;;;;;;3.55;1.48;;;;;;;18.91;70.31;100564.84;5072037;28;20502;-80
2022/09/05 02:18:56;;;;;;;3.45;1.58;;;;;;;18.89;70.19;100567.19;5071030;28;20028;-81
2022/09/05 02:21:37;;;;;;;3.50;1.60;;;;;;;18.88;69.98;100565.59;5072678;28;20031;-80
2022/09/05 02:24:24;;;;;;;3.85;1.85;;;;;;;18.78;70.51;100561.56;5073221;28;20020;-81
2022/09/05 02:27:26;;;;;;;2.60;1.17;;;;;;;18.70;70.83;100562.66;5072305;28;20043;-81
2022/09/05 02:30:09;;;;;;;3.47;1.48;;;;;;;18.81;70.23;100560.00;5072245;28;20029;-80
2022/09/05 02:32:34;;;;;;;3.70;1.67;;;;;;;18.79;70.52;100559.59;5072659;28;20078;-80
2022/09/05 02:35:13;;;;;;;2.93;1.30;;;;;;;18.75;70.44;100556.81;5076141;28;20036;-80
2022/09/05 02:38:00;;;;;;;3.25;1.60;;;;;;;18.74;70.23;100555.22;5075880;28;20259;-80
2022/09/05 02:40:35;;;;;;;4.78;1.80;;;;;;;18.75;70.40;100554.03;5076121;28;20040;-81
2022/09/05 02:43:18;;;;;;;4.00;1.70;;;;;;;18.76;70.28;100555.63;5075793;28;20108;-80
2022/09/05 02:46:20;;;;;;;6.00;1.67;;;;;;;18.79;70.10;100557.63;5075581;28;20468;-80
2022/09/05 02:48:51;;;;;;;3.47;1.50;;;;;;;18.90;69.59;100555.75;5055594;28;20091;-80
2022/09/05 02:51:39;;;;;;;3.78;1.67;;;;;;;18.92;69.02;100558.13;5075956;28;20067;-80
2022/09/05 02:54:34;;;;;;;3.05;1.45;;;;;;;18.91;69.13;100562.06;5075247;28;20025;-77
2022/09/05 02:57:19;;;;;;;3.00;1.40;;;;;;;18.96;68.83;100549.88;5074288;28;20040;-80
2022/09/05 02:59:49;;;;;;;4.03;1.38;;;;;;;18.99;68.73;100555.47;5074990;28;20032;-80
2022/09/05 03:02:33;;;;;;;3.38;1.65;;;;;;;18.94;68.65;100551.06;5075401;28;20039;-79
2022/09/05 03:05:11;;;;;;;3.40;1.48;;;;;;;18.96;68.87;100555.41;5075210;28;20060;-80
2022/09/05 03:07:58;;;;;;;3.60;1.60;;;;;;;19.02;68.31;100554.69;5075206;28;20165;-79
2022/09/05 03:10:26;;;;;;;3.60;1.33;;;;;;;19.08;68.20;100555.13;5075256;28;20047;-80
2022/09/05 03:13:10;;;;;;;3.30;1.40;;;;;;;19.07;68.35;100553.53;5075092;28;20109;-79
2022/09/05 03:16:12;;;;;;;2.75;1.35;;;;;;;19.10;68.11;100559.09;5075131;28;20033;-79
2022/09/05 03:19:15;;;;;;;3.78;1.33;;;;;;;19.13;67.79;100554.78;5074853;28;20041;-81
2022/09/05 03:22:12;;;;;;;3.13;1.38;;;;;;;19.13;67.73;100554.78;5074904;28;20020;-80
2022/09/05 03:24:53;;;;;;;;;;;;;;;19.15;67.63;100552.44;5075717;28;20328;-81
2022/09/05 03:27:52;;;;;;;2.53;1.23;;;;;;;19.17;67.98;100558.38;5074864;28;20053;-80
2022/09/05 03:30:40;;;;;;;3.50;1.60;;;;;;;19.22;67.41;100552.50;5073546;28;20127;-80
2022/09/05 03:33:36;;;;;;;2.45;1.15;;;;;;;19.22;67.55;100549.72;5074552;28;20025;-81
2022/09/05 03:36:33;;;;;;;3.63;1.40;;;;;;;19.14;67.64;100561.88;5074461;28;20033;-80
2022/09/05 03:39:07;;;;;;;2.92;1.35;;;;;;;19.17;67.40;100556.41;5074366;28;20032;-80
2022/09/05 03:41:52;;;;;;;3.47;1.48;;;;;;;18.91;68.51;100559.31;5074639;28;20473;-80
2022/09/05 03:44:35;;;;;;;3.10;1.40;;;;;;;18.85;68.76;100561.63;5073427;28;20452;-78
2022/09/05 03:47:15;;;;;;;4.53;1.55;;;;;;;18.83;68.92;100564.00;5074269;28;20024;-78
2022/09/05 03:50:19;;;;;;;3.70;1.60;;;;;;;18.79;68.92;100565.91;5074207;28;20025;-78
2022/09/05 03:52:47;;;;;;;3.58;1.65;;;;;;;18.74;69.08;100562.69;5062746;28;20467;-78
2022/09/05 03:55:32;;;;;;;3.28;1.40;;;;;;;18.74;68.77;100562.69;5074085;28;20024;-78
2022/09/05 03:58:41;;;;;;;2.92;1.20;;;;;;;18.97;66.58;100559.75;5074168;28;20060;-80
2022/09/05 04:01:18;;;;;;;4.22;1.40;;;;;;;19.11;66.35;100554.34;5074021;28;20063;-80
2022/09/05 04:03:48;;;;;;;2.50;1.25;;;;;;;19.12;65.53;100559.50;5074100;28;20028;-79
2022/09/05 04:06:26;;;;;;;3.35;1.20;;;;;;;19.43;64.60;100560.91;5074156;28;20088;-79
2022/09/05 04:09:04;;;;;;;4.00;1.55;;;;;;;19.42;64.54;100561.31;5072635;28;20036;-79
2022/09/05 04:11:44;;;;;;;3.25;1.30;;;;;;;19.31;65.25;100563.97;5073833;28;20032;-80
2022/09/05 04:14:24;;;;;;;2.75;1.13;;;;;;;19.25;65.39;100557.25;5073894;28;20043;-79
2022/09/05 04:16:59;;;;;;;2.83;1.15;;;;;;;19.19;65.68;100558.78;5073597;28;20090;-79
2022/09/05 04:19:37;;;;;;;3.05;1.08;;;;;;;19.21;65.56;100564.72;5073898;28;20063;-79
2022/09/05 04:22:08;;;;;;;3.13;1.40;;;;;;;19.12;66.07;100555.94;5073853;28;20033;-79
2022/09/05 04:25:03;;;;;;;2.72;1.25;;;;;;;19.07;66.40;100562.63;5073641;28;20047;-80
2022/09/05 04:27:54;;;;;;;3.42;1.77;;;;;;;19.02;66.28;100567.69;5073482;28;20032;-80
2022/09/05 04:30:54;;;;;;;4.43;1.70;;;;;;;19.00;66.26;100573.59;5073464;28;20171;-76
2022/09/05 04:33:27;;;;;;;3.78;1.50;;;;;;;19.01;66.37;100568.88;5073618;28;20035;-76
2022/09/05 04:36:01;;;;;;;3.50;1.52;;;;;;;19.01;66.50;100569.66;5073395;28;20375;-76
2022/09/05 04:38:41;;;;;;;2.95;1.35;;;;;;;19.19;66.48;100567.06;5073012;28;20028;-75
2022/09/05 04:41:17;;;;;;;5.00;1.85;;;;;;;19.11;67.13;100570.91;5071890;28;20028;-74
2022/09/05 04:43:54;;;;;;;4.15;1.88;;;;;;;19.04;67.67;100570.88;5073268;28;20032;-74
2022/09/05 04:46:30;;;;;;;3.17;1.50;;;;;;;18.95;67.96;100571.16;5071640;28;20462;-77
2022/09/05 04:49:31;;;;;;;3.20;1.25;;;;;;;18.86;68.31;100568.75;5072785;28;20033;-75
2022/09/05 04:52:08;;;;;;;3.45;1.70;;;;;;;18.80;68.67;100575.75;5069438;28;20087;-77
2022/09/05 04:54:49;;;;;;;3.83;1.60;;;;;;;18.79;68.04;100584.41;5073026;28;20119;-75
2022/09/05 04:57:47;;;;;;;5.57;1.55;;;;;;;18.87;68.35;100580.56;5071569;28;20119;-77
2022/09/05 05:00:14;;;;;;;5.85;2.10;;;;;;;18.74;69.04;100580.03;5071943;28;20024;-76
2022/09/05 05:02:48;;;;;;;4.22;1.70;;;;;;;18.87;68.66;100586.88;5072810;28;20028;-76
2022/09/05 05:05:21;;;;;;;3.55;1.85;;;;;;;18.81;68.75;100587.59;5072995;28;20060;-75
2022/09/05 05:08:01;;;;;;;3.75;1.80;;;;;;;18.70;69.32;100592.22;5072625;28;20032;-75
2022/09/05 05:10:34;;;;;;;4.45;1.60;;;;;;;18.62;69.49;100591.31;5072335;28;20070;-75
2022/09/05 05:13:19;;;;;;;3.47;1.40;;;;;;;18.64;69.71;100597.25;5072538;28;20036;-75
2022/09/05 05:16:14;;;;;;;3.90;1.58;;;;;;;18.63;69.81;100598.44;5072539;28;20108;-76
2022/09/05 05:18:45;;;;;;;3.88;1.88;;;;;;;18.65;69.82;100600.84;5072505;28;20051;-76
2022/09/05 05:21:23;;;;;;;3.40;1.38;;;;;;;18.67;68.93;100602.03;5072309;28;20032;-76
2022/09/05 05:24:00;;;;;;;3.97;2.08;;;;;;;18.62;69.04;100603.13;5072450;28;20384;-75
2022/09/05 05:26:48;;;;;;;4.80;1.50;;;;;;;18.56;69.19;100603.84;5072241;28;20089;-75
2022/09/05 05:29:58;;;;;;;4.35;1.83;;;;;;;18.54;69.08;100606.19;5072350;28;20036;-75
2022/09/05 05:32:29;;;;;;;3.28;1.67;;;;;;;18.52;69.23;100605.78;5072402;28;20038;-76
2022/09/05 05:35:00;;;;;;;3.70;1.50;;;;;;;18.82;68.72;100608.50;5072249;28;20036;-75
2022/09/05 05:37:35;;;;;;;4.15;1.85;;;;;;;19.08;67.41;100610.31;5072006;28;20031;-75
2022/09/05 05:40:15;;;;;;;4.57;1.50;;;;;;;19.28;66.70;100610.88;5072177;28;20036;-76
2022/09/05 05:42:42;;;;;;;3.40;1.52;;;;;;;19.22;66.48;100604.94;5070880;28;20025;-76
2022/09/05 05:45:23;;;;;;;4.78;1.98;;;;;;;19.12;67.09;100608.38;5072436;28;20104;-75
2022/09/05 05:48:18;;;;;;;2.95;1.38;;;;;;;19.17;66.69;100606.09;5071681;28;20521;-75
2022/09/05 05:50:51;;;;;;;3.85;1.70;;;;;;;19.29;66.38;100613.28;5071667;28;20075;-75
2022/09/05 05:53:42;;;;;;;4.93;1.83;;;;;;;19.31;66.36;100605.38;5072474;28;20044;-76
2022/09/05 05:56:24;;;;;;;4.38;1.80;;;;;;;19.28;67.10;100616.41;5072326;28;20031;-76
2022/09/05 05:59:08;;;;;;;9.93;1.90;;;;;;;19.16;67.77;100609.22;5072143;28;20036;-76
2022/09/05 06:02:01;;;;;;;4.38;1.90;;;;;;;19.24;67.20;100613.63;5071821;28;20482;-76
2022/09/05 06:04:48;;;;;;;4.03;1.80;;;;;;;19.22;66.89;100613.22;5071643;28;20102;-76
2022/09/05 06:07:51;;;;;;;3.83;1.83;;;;;;;19.19;66.89;100614.00;5071920;28;20036;-76
2022/09/05 06:10:43;;;;;;;3.58;1.73;;;;;;;19.16;67.01;100617.50;5074459;28;20471;-77
2022/09/05 06:13:38;;;;;;;4.82;1.52;;;;;;;19.20;66.80;100616.38;5075652;28;20028;-76
2022/09/05 06:16:31;;;;;;;4.53;1.60;;;;;;;19.35;66.29;100614.53;5075932;28;20030;-76
2022/09/05 06:19:51;;;;;;;3.13;1.48;;;;;;;19.48;66.03;100615.81;5075725;28;20070;-76
2022/09/05 06:22:52;;;;;;;2.97;1.25;;;;;;;19.68;65.46;100613.63;5053197;28;20033;-77
2022/09/05 06:25:53;;;;;;;4.18;2.15;;;;;;;19.75;65.58;100612.88;5059659;28;20044;-76
2022/09/05 06:28:24;;;;;;;3.83;1.90;;;;;;;19.58;66.17;100619.06;5075601;28;20074;-77
2022/09/05 06:31:06;;;;;;;3.63;1.70;;;;;;;19.50;66.40;100619.00;5075586;28;20029;-76
2022/09/05 06:33:31;;;;;;;4.10;1.73;;;;;;;19.49;66.81;100622.94;5075396;28;20032;-77
2022/09/05 06:36:16;;;;;;;3.45;1.65;;;;;;;19.53;66.76;100620.19;5075446;28;20383;-76
2022/09/05 06:39:03;;;;;;;3.72;1.80;;;;;;;20.05;64.99;100616.22;5073673;28;20467;-76
2022/09/05 06:41:37;;;;;;;2.92;1.50;;;;;;;20.36;63.76;100616.75;5074013;28;20029;-76
2022/09/05 06:44:24;;;;;;;2.67;1.30;;;;;;;20.49;62.66;100611.66;5075251;28;20067;-76
2022/09/05 06:46:52;;;;;;;;;;;;;;;20.52;62.64;100625.53;5075825;28;20516;-76
2022/09/05 06:49:24;;;;;;;3.22;1.38;;;;;;;20.65;62.18;100615.69;5075194;28;19942;-76
2022/09/05 06:52:27;;;;;;;3.40;1.67;;;;;;;20.80;62.17;100621.25;5075141;28;20028;-76
2022/09/05 06:55:21;;;;;;;3.45;1.60;;;;;;;20.68;63.11;100611.38;5074993;28;20111;-76
2022/09/05 06:58:24;;;;;;;4.10;1.80;;;;;;;20.99;62.36;100620.91;5071842;28;20132;-76
2022/09/05 07:00:55;;;;;;;5.35;2.10;;;;;;;21.14;61.83;100613.41;5075110;28;20056;-77
2022/09/05 07:03:41;;;;;;;3.72;1.73;;;;;;;21.14;62.09;100619.72;5075378;28;20527;-76
2022/09/05 07:06:09;;;;;;;;;;;;;;;21.18;61.36;100611.44;5073910;28;20163;-77
2022/09/05 07:08:52;;;;;;;3.33;1.40;;;;;;;21.36;61.30;100622.56;5074355;28;20007;-77
2022/09/05 07:11:39;;;;;;;3.55;1.30;;;;;;;21.49;61.15;100626.50;5074486;28;20037;-76
2022/09/05 07:14:23;;;;;;;3.60;1.60;;;;;;;21.56;60.16;100624.53;5073067;28;20036;-77
2022/09/05 07:16:54;;;;;;;4.28;1.33;;;;;;;21.69;59.97;100633.22;5074583;28;20031;-79
2022/09/05 07:19:25;;;;;;;4.20;1.70;;;;;;;21.81;58.72;100624.47;5073369;28;20039;-79
2022/09/05 07:22:20;;;;;;;3.53;1.65;;;;;;;21.94;58.88;100635.94;5074446;28;20115;-78
2022/09/05 07:24:48;;;;;;;4.47;1.50;;;;;;;21.89;58.54;100626.06;5074895;28;20024;-79
2022/09/05 07:27:34;;;;;;;3.78;1.40;;;;;;;22.16;56.88;100628.38;5074556;28;20120;-77
2022/09/05 07:30:01;;;;;;;3.63;1.10;;;;;;;22.55;55.94;100633.00;5074739;28;20036;-79
2022/09/05 07:32:32;;;;;;;3.70;1.50;;;;;;;22.70;55.71;100640.09;5074406;28;20541;-79
2022/09/05 07:35:01;;;;;;;2.58;1.30;;;;;;;22.77;54.06;100631.69;5074402;28;20033;-79
2022/09/05 07:37:38;;;;;;;3.33;1.40;;;;;;;22.83;54.25;100632.88;5073452;28;20127;-78
2022/09/05 07:40:08;;;;;;;4.43;1.40;;;;;;;22.82;53.92;100634.06;5074626;28;20502;-78
2022/09/05 07:42:43;;;;;;;2.70;1.27;;;;;;;22.93;52.46;100632.03;5074425;28;20123;-78
2022/09/05 07:45:12;;;;;;;3.53;1.40;;;;;;;23.13;52.38;100635.06;5073971;28;20056;-78
2022/09/05 07:47:52;;;;;;;4.35;1.33;;;;;;;22.95;51.56;100640.75;5073770;28;20425;-78
2022/09/05 07:50:19;;;;;;;2.85;1.10;;;;;;;23.13;50.75;100637.06;5072472;28;20032;-77
2022/09/05 07:52:47;;;;;;;3.92;1.00;;;;;;;23.31;50.41;100644.06;5073816;28;20116;-76
2022/09/05 07:55:24;;;;;;;2.33;1.02;;;;;;;23.35;51.16;100652.38;5073672;28;20024;-77
2022/09/05 07:57:51;;;;;;;;;;;;;;;23.50;50.71;100641.94;5074014;28;20522;-77
2022/09/05 08:00:22;;;;;;;3.00;1.20;;;;;;;23.69;49.55;100650.53;5074254;28;19912;-77
2022/09/05 08:02:48;;;;;;;2.30;1.02;;;;;;;24.00;48.59;100650.63;5073636;28;20387;-77
2022/09/05 08:05:18;;;;;;;5.80;1.42;;;;;;;24.10;47.70;100649.72;5073352;28;20052;-77
2022/09/05 08:07:49;;;;;;;3.22;1.20;;;;;;;24.03;48.06;100654.59;5072421;28;20062;-76
2022/09/05 08:10:21;;;;;;;3.63;1.55;;;;;;;23.96;48.03;100655.44;5073586;28;20035;-77
2022/09/05 08:12:54;;;;;;;3.72;0.90;;;;;;;24.21;47.38;100653.19;5072296;28;20048;-76
2022/09/05 08:15:23;;;;;;;2.50;1.05;;;;;;;24.41;46.71;100649.81;5072081;28;20105;-77
2022/09/05 08:18:14;;;;;;;2.13;0.90;;;;;;;24.32;46.69;100643.94;5073167;28;20472;-76
2022/09/05 08:20:45;;;;;;;4.75;0.95;;;;;;;24.39;46.80;100647.44;5073107;28;20032;-76
2022/09/05 08:23:46;;;;;;;2.25;1.00;;;;;;;24.39;47.03;100646.66;5073231;28;20082;-76
2022/09/05 08:26:18;;;;;;;3.58;1.10;;;;;;;24.56;46.76;100640.88;5072899;28;20475;-76
2022/09/05 08:29:01;;;;;;;2.20;0.90;;;;;;;24.54;45.92;100646.06;5072970;28;20584;-76
2022/09/05 08:31:36;;;;;;;2.75;1.20;;;;;;;24.63;46.05;100639.97;5071310;28;20135;-76
2022/09/05 08:34:08;;;;;;;3.92;0.93;;;;;;;24.73;45.02;100633.47;5072998;28;20181;-76
2022/09/05 08:36:48;;;;;;;4.55;1.48;;;;;;;24.79;43.96;100637.38;5072547;28;20055;-76
2022/09/05 08:39:24;;;;;;;3.03;1.30;;;;;;;24.89;44.63;100638.44;5072543;28;20457;-76
2022/09/05 08:42:04;;;;;;;2.17;0.98;;;;;;;24.82;44.05;100642.09;5072560;28;20058;-76
2022/09/05 08:44:57;;;;;;;2.45;1.17;;;;;;;24.87;44.62;100632.50;5072543;28;20474;-76
2022/09/05 08:48:03;;;;;;;3.08;1.17;;;;;;;25.10;43.60;100626.22;5072272;28;20383;-76
2022/09/05 08:50:41;;;;;;;2.15;0.85;;;;;;;25.18;42.49;100627.66;5050113;28;20033;-76
2022/09/05 08:53:25;;;;;;;3.00;1.10;;;;;;;25.13;43.41;100630.94;5050312;28;20549;-76
2022/09/05 08:55:59;;;;;;;4.18;1.30;;;;;;;25.22;43.32;100631.19;5065386;28;20045;-76
2022/09/05 08:58:40;;;;;;;3.08;1.10;;;;;;;25.31;42.59;100623.06;5072825;28;20075;-76
2022/09/05 09:01:24;;;;;;;3.65;1.63;;;;;;;25.52;43.45;100624.72;5072319;28;20463;-76
2022/09/05 09:04:17;;;;;;;3.15;1.10;;;;;;;25.79;42.29;100617.09;5072446;28;20029;-76
2022/09/05 09:06:50;;;;;;;3.03;1.02;;;;;;;25.97;41.78;100615.97;5072270;28;20028;-75
2022/09/05 09:09:30;;;;;;;2.22;0.93;;;;;;;25.92;41.54;100614.47;5072206;28;20033;-76
2022/09/05 09:12:23;;;;;;;2.97;1.00;;;;;;;25.91;41.88;100612.09;5070771;28;20048;-75
2022/09/05 09:15:01;;;;;;;3.17;1.00;;;;;;;25.98;40.68;100611.97;5071338;28;20040;-75
2022/09/05 09:17:48;;;;;;;2.58;1.02;;;;;;;26.18;39.82;100604.38;5072621;28;20081;-75
2022/09/05 09:20:45;;;;;;;2.28;0.80;;;;;;;26.26;39.54;100605.03;5072192;28;20029;-76
2022/09/05 09:23:28;;;;;;;3.47;1.25;;;;;;;26.30;39.61;100606.53;5072202;28;20037;-76
2022/09/05 09:26:15;;;;;;;5.40;0.95;;;;;;;26.32;38.44;100606.88;5072098;28;20040;-75
2022/09/05 09:29:02;;;;;;;2.50;0.93;;;;;;;26.41;38.37;100602.75;5072031;28;20071;-75
2022/09/05 09:31:53;;;;;;;3.00;1.13;;;;;;;26.40;37.99;100601.19;5072645;28;20082;-76
2022/09/05 09:34:24;;;;;;;2.20;1.00;;;;;;;26.24;38.38;100601.88;5072120;28;20112;-75
2022/09/05 09:37:14;;;;;;;1.73;0.88;;;;;;;26.40;39.04;100599.19;5072074;28;20107;-75
2022/09/05 09:40:10;;;;;;;2.13;0.90;;;;;;;26.38;39.44;100598.84;5072086;28;20024;-76
2022/09/05 09:42:45;;;;;;;2.28;1.20;;;;;;;26.57;37.13;100600.03;5071688;28;20126;-75
2022/09/05 09:45:55;;;;;;;1.65;0.80;;;;;;;26.54;38.17;100598.88;5071171;28;20048;-76
2022/09/05 09:48:39;;;;;;;3.15;1.30;;;;;;;26.59;37.21;100597.56;5060166;28;20040;-76
2022/09/05 09:51:42;;;;;;;3.20;1.23;;;;;;;26.69;36.24;100597.31;5071996;28;20032;-75
2022/09/05 09:54:39;;;;;;;2.05;0.90;;;;;;;26.83;37.00;100598.22;5072451;28;20028;-76
2022/09/05 09:57:22;;;;;;;;;;;;;;;26.50;36.10;100603.72;5072923;28;20528;-76
2022/09/05 09:59:53;;;;;;;3.15;1.08;;;;;;;26.34;36.77;100604.44;5072457;28;19908;-76
2022/09/05 10:02:25;;;;;;;2.33;1.00;;;;;;;26.36;35.71;100595.66;5072335;28;20039;-76
2022/09/05 10:05:27;;;;;;;2.03;0.82;;;;;;;26.30;37.12;100597.38;5072251;28;20045;-76
2022/09/05 10:08:19;;;;;;;5.13;0.95;;;;;;;26.70;36.91;100592.53;5072429;28;20044;-75
2022/09/05 10:10:55;;;;;;;1.67;0.80;;;;;;;26.43;37.33;100592.72;5072315;28;20535;-76
2022/09/05 10:13:48;;;;;;;1.90;0.90;;;;;;;26.34;37.11;100592.50;5072080;28;20112;-76
2022/09/05 10:16:25;;;;;;;3.13;0.93;;;;;;;26.68;35.91;100600.56;5071872;28;20057;-77
2022/09/05 10:19:17;;;;;;;3.22;1.02;;;;;;;26.49;37.62;100591.00;5072269;28;20046;-76
2022/09/05 10:21:48;;;;;;;2.50;0.90;;;;;;;26.81;36.50;100587.47;5072144;28;20063;-76
2022/09/05 10:24:25;;;;;;;2.05;1.00;;;;;;;26.80;36.08;100583.13;5072479;28;20094;-76
2022/09/05 10:27:03;;;;;;;5.63;2.17;;;;;;;26.67;36.06;100585.81;5071952;28;20028;-76
2022/09/05 10:29:44;;;;;;;2.67;1.13;;;;;;;27.11;35.00;100572.44;5071863;28;20039;-76
2022/09/05 10:32:20;;;;;;;6.40;1.42;;;;;;;27.25;35.39;100576.88;5070930;28;20032;-76
2022/09/05 10:34:53;;;;;;;4.22;1.70;;;;;;;27.20;37.10;100574.59;5071706;28;20028;-76
2022/09/05 10:37:18;;;;;;;3.67;1.70;;;;;;;27.04;36.40;100575.38;5070647;28;20028;-76
2022/09/05 10:39:47;;;;;;;1.83;0.90;;;;;;;27.46;34.99;100570.75;5071675;28;20044;-76
2022/09/05 10:42:24;;;;;;;2.35;1.05;;;;;;;27.24;36.38;100564.91;5071834;28;20025;-76
2022/09/05 10:44:56;;;;;;;3.40;1.27;;;;;;;27.03;35.60;100565.44;5071608;28;20111;-75
2022/09/05 10:47:38;;;;;;;2.38;1.20;;;;;;;26.74;36.09;100570.13;5071938;28;20032;-76
2022/09/05 10:50:23;;;;;;;2.42;0.90;;;;;;;26.74;36.38;100575.69;5071656;28;20121;-77
2022/09/05 10:52:49;;;;;;;2.30;1.00;;;;;;;26.62;36.69;100571.56;5071631;28;20029;-76
2022/09/05 10:55:25;;;;;;;2.60;1.07;;;;;;;26.64;36.76;100571.91;5074804;28;20030;-76
2022/09/05 10:58:23;;;;;;;2.78;0.90;;;;;;;26.90;35.77;100561.75;5075406;28;20609;-76
2022/09/05 11:01:09;;;;;;;3.13;1.00;;;;;;;26.67;36.37;100565.47;5063332;28;20170;-76
2022/09/05 11:04:03;;;;;;;4.35;1.83;;;;;;;26.45;37.39;100561.59;5075781;28;20459;-76
2022/09/05 11:07:17;;;;;;;3.85;1.23;;;;;;;26.24;37.05;100557.22;5075147;28;20039;-76
2022/09/05 11:10:00;;;;;;;4.15;1.10;;;;;;;26.28;37.43;100557.94;5062221;28;20223;-76
2022/09/05 11:12:47;;;;;;;2.65;1.08;;;;;;;26.54;37.52;100562.59;5074940;28;20029;-75
2022/09/05 11:15:30;;;;;;;2.50;1.00;;;;;;;26.58;36.72;100554.91;5075188;28;20405;-75
2022/09/05 11:18:03;;;;;;;2.17;0.93;;;;;;;26.59;36.22;100548.09;5073518;28;20032;-75
2022/09/05 11:20:59;;;;;;;2.90;0.93;;;;;;;26.41;36.18;100553.28;5074876;28;20147;-75
2022/09/05 11:23:40;;;;;;;5.38;1.27;;;;;;;26.38;36.72;100545.78;5070030;28;20475;-75
2022/09/05 11:26:34;;;;;;;2.85;1.20;;;;;;;26.31;36.50;100537.53;5074056;28;20035;-75
2022/09/05 11:29:02;;;;;;;3.20;1.17;;;;;;;26.38;36.92;100534.63;5075391;28;20028;-73
2022/09/05 11:31:51;;;;;;;2.65;1.08;;;;;;;26.41;36.67;100533.75;5073692;28;20055;-73
2022/09/05 11:34:39;;;;;;;1.83;0.90;;;;;;;27.14;35.10;100526.84;5074731;28;20032;-73
2022/09/05 11:37:31;;;;;;;1.95;0.80;;;;;;;27.31;34.91;100524.03;5073130;28;20061;-73
2022/09/05 11:40:18;;;;;;;1.98;0.90;;;;;;;27.28;34.85;100523.69;5073906;28;20125;-73
2022/09/05 11:42:50;;;;;;;2.35;1.00;;;;;;;27.45;34.09;100518.84;5074659;28;20155;-73
2022/09/05 11:45:37;;;;;;;3.63;1.35;;;;;;;27.74;33.81;100520.88;5073031;28;20082;-73
2022/09/05 11:48:25;;;;;;;2.03;0.82;;;;;;;27.93;34.13;100513.56;5072918;28;20037;-73
2022/09/05 11:50:59;;;;;;;2.22;0.90;;;;;;;27.97;33.46;100517.03;5074069;28;20021;-73
2022/09/05 11:53:46;;;;;;;2.00;0.90;;;;;;;28.16;34.88;100522.44;5074181;28;20075;-73
2022/09/05 11:56:30;;;;;;;3.78;1.40;;;;;;;28.63;32.78;100521.81;5074264;28;20036;-73
2022/09/05 11:59:04;;;;;;;1.92;0.90;;;;;;;28.79;33.20;100520.91;5073879;28;20039;-74
2022/09/05 12:01:54;;;;;;;2.28;0.95;;;;;;;28.89;31.65;100519.81;5072974;28;20029;-74
2022/09/05 12:04:41;;;;;;;2.28;0.90;;;;;;;28.77;32.37;100514.97;5073843;28;20347;-73
2022/09/05 12:07:22;;;;;;;2.50;0.90;;;;;;;28.76;32.78;100521.81;5073093;28;20036;-73
2022/09/05 12:10:11;;;;;;;2.20;1.05;;;;;;;28.63;33.81;100516.22;5073956;28;20094;-73
2022/09/05 12:13:17;;;;;;;3.60;1.23;;;;;;;28.53;32.80;100517.34;5072752;28;20035;-73
2022/09/05 12:15:46;;;;;;;2.75;1.10;;;;;;;28.75;32.09;100515.44;5073705;28;20111;-75
2022/09/05 12:18:41;;;;;;;2.80;1.15;;;;;;;28.22;34.10;100516.28;5073740;28;20111;-74
2022/09/05 12:21:23;;;;;;;1.88;0.80;;;;;;;28.16;33.03;100510.44;5073149;28;20479;-74
2022/09/05 12:23:56;;;;;;;2.65;0.80;;;;;;;28.10;33.01;100507.44;5073422;28;20029;-74
2022/09/05 12:26:41;;;;;;;2.90;1.00;;;;;;;27.75;32.47;100514.84;5073476;28;20024;-74
2022/09/05 12:29:10;;;;;;;3.22;1.08;;;;;;;27.33;32.80;100504.78;5072973;28;20036;-74
2022/09/05 12:31:45;;;;;;;2.65;1.00;;;;;;;27.48;33.93;100511.56;5071908;28;20109;-74
2022/09/05 12:34:17;;;;;;;2.35;0.93;;;;;;;28.01;33.32;100510.09;5072967;28;20139;-74
2022/09/05 12:36:47;;;;;;;2.35;0.90;;;;;;;28.28;33.84;100506.91;5071484;28;20025;-74